sensor_id;sensor_type;location;lat;lon;timestamp;P1;durP1;ratioP1;P2;durP2;ratioP2
71391;SDS011;59205;50.610;12.638;2022-12-05T00:00:30;94.75;;;33.90;;
71391;SDS011;59205;50.610;12.638;2022-12-05T00:02:56;92.20;;;32.70;;
71391;SDS011;59205;50.610;12.638;2022-12-05T00:05:22;98.00;;;35.03;;
71391;SDS011;59205;50.610;12.638;2022-12-05T00:07:48;104.60;;;34.90;;
71391;SDS011;59205;50.610;12.638;2022-12-05T00:10:13;93.45;;;32.47;;
71391;SDS011;59205;50.610;12.638;2022-12-05T00:12:39;95.95;;;33.42;;
71391;SDS011;59205;50.610;12.638;2022-12-05T00:15:05;105.10;;;34.88;;
71391;SDS011;59205;50.610;12.638;2022-12-05T00:17:33;102.00;;;33.75;;
71391;SDS011;59205;50.610;12.638;2022-12-05T00:19:59;95.40;;;33.00;;
71391;SDS011;59205;50.610;12.638;2022-12-05T00:22:24;103.40;;;35.10;;
71391;SDS011;59205;50.610;12.638;2022-12-05T00:24:51;99.28;;;34.42;;
71391;SDS011;59205;50.610;12.638;2022-12-05T00:27:16;107.35;;;35.17;;
71391;SDS011;59205;50.610;12.638;2022-12-05T00:29:42;105.65;;;35.17;;
71391;SDS011;59205;50.610;12.638;2022-12-05T00:32:07;98.18;;;32.80;;
71391;SDS011;59205;50.610;12.638;2022-12-05T00:34:34;95.70;;;32.30;;
71391;SDS011;59205;50.610;12.638;2022-12-05T00:36:59;98.35;;;33.80;;
71391;SDS011;59205;50.610;12.638;2022-12-05T00:39:25;100.07;;;33.67;;
71391;SDS011;59205;50.610;12.638;2022-12-05T00:41:51;94.53;;;33.13;;
71391;SDS011;59205;50.610;12.638;2022-12-05T00:44:16;102.47;;;34.05;;
71391;SDS011;59205;50.610;12.638;2022-12-05T00:46:42;95.25;;;33.35;;
71391;SDS011;59205;50.610;12.638;2022-12-05T00:49:07;105.15;;;33.15;;
71391;SDS011;59205;50.610;12.638;2022-12-05T00:51:36;98.28;;;33.80;;
71391;SDS011;59205;50.610;12.638;2022-12-05T00:54:05;122.35;;;36.50;;
71391;SDS011;59205;50.610;12.638;2022-12-05T00:56:33;113.72;;;35.25;;
71391;SDS011;59205;50.610;12.638;2022-12-05T00:59:01;119.90;;;34.70;;
71391;SDS011;59205;50.610;12.638;2022-12-05T01:03:57;112.47;;;34.40;;
71391;SDS011;59205;50.610;12.638;2022-12-05T01:06:26;130.32;;;37.08;;
71391;SDS011;59205;50.610;12.638;2022-12-05T01:08:53;125.38;;;35.67;;
71391;SDS011;59205;50.610;12.638;2022-12-05T01:11:19;103.93;;;34.17;;
71391;SDS011;59205;50.610;12.638;2022-12-05T01:13:46;117.63;;;36.45;;
71391;SDS011;59205;50.610;12.638;2022-12-05T01:16:15;108.10;;;35.10;;
71391;SDS011;59205;50.610;12.638;2022-12-05T01:18:44;108.55;;;35.35;;
71391;SDS011;59205;50.610;12.638;2022-12-05T01:21:10;109.03;;;34.17;;
71391;SDS011;59205;50.610;12.638;2022-12-05T01:23:36;111.55;;;35.47;;
71391;SDS011;59205;50.610;12.638;2022-12-05T01:26:06;108.53;;;35.40;;
71391;SDS011;59205;50.610;12.638;2022-12-05T01:28:34;117.97;;;36.38;;
71391;SDS011;59205;50.610;12.638;2022-12-05T01:31:03;118.40;;;36.20;;
71391;SDS011;59205;50.610;12.638;2022-12-05T01:33:33;108.75;;;35.13;;
71391;SDS011;59205;50.610;12.638;2022-12-05T01:36:00;101.57;;;33.97;;
71391;SDS011;59205;50.610;12.638;2022-12-05T01:38:27;106.80;;;34.42;;
71391;SDS011;59205;50.610;12.638;2022-12-05T01:41:01;100.28;;;33.92;;
71391;SDS011;59205;50.610;12.638;2022-12-05T01:43:28;100.75;;;33.85;;
71391;SDS011;59205;50.610;12.638;2022-12-05T01:45:54;110.35;;;35.92;;
71391;SDS011;59205;50.610;12.638;2022-12-05T01:48:21;111.00;;;36.17;;
71391;SDS011;59205;50.610;12.638;2022-12-05T01:50:53;116.97;;;36.70;;
71391;SDS011;59205;50.610;12.638;2022-12-05T01:53:19;116.35;;;36.22;;
71391;SDS011;59205;50.610;12.638;2022-12-05T01:55:46;120.40;;;36.78;;
71391;SDS011;59205;50.610;12.638;2022-12-05T01:58:14;113.80;;;37.05;;
71391;SDS011;59205;50.610;12.638;2022-12-05T02:00:40;116.55;;;36.03;;
71391;SDS011;59205;50.610;12.638;2022-12-05T02:03:08;112.55;;;35.92;;
71391;SDS011;59205;50.610;12.638;2022-12-05T02:05:39;104.55;;;34.67;;
71391;SDS011;59205;50.610;12.638;2022-12-05T02:08:06;114.15;;;35.20;;
71391;SDS011;59205;50.610;12.638;2022-12-05T02:10:43;111.90;;;36.05;;
71391;SDS011;59205;50.610;12.638;2022-12-05T02:13:18;107.97;;;34.35;;
71391;SDS011;59205;50.610;12.638;2022-12-05T02:16:01;111.18;;;35.53;;
71391;SDS011;59205;50.610;12.638;2022-12-05T02:23:59;118.95;;;37.20;;
71391;SDS011;59205;50.610;12.638;2022-12-05T02:35:40;104.05;;;33.67;;
71391;SDS011;59205;50.610;12.638;2022-12-05T02:38:35;109.97;;;35.15;;
71391;SDS011;59205;50.610;12.638;2022-12-05T02:43:39;108.88;;;34.20;;
71391;SDS011;59205;50.610;12.638;2022-12-05T02:46:13;95.00;;;32.05;;
71391;SDS011;59205;50.610;12.638;2022-12-05T02:48:43;96.60;;;31.45;;
71391;SDS011;59205;50.610;12.638;2022-12-05T02:51:12;102.65;;;34.30;;
71391;SDS011;59205;50.610;12.638;2022-12-05T02:53:41;94.05;;;33.03;;
71391;SDS011;59205;50.610;12.638;2022-12-05T02:56:09;92.07;;;32.15;;
71391;SDS011;59205;50.610;12.638;2022-12-05T02:58:39;88.53;;;31.23;;
71391;SDS011;59205;50.610;12.638;2022-12-05T03:01:12;85.65;;;31.77;;
71391;SDS011;59205;50.610;12.638;2022-12-05T03:03:39;83.85;;;30.42;;
71391;SDS011;59205;50.610;12.638;2022-12-05T03:06:06;88.47;;;31.05;;
71391;SDS011;59205;50.610;12.638;2022-12-05T03:08:41;85.30;;;31.40;;
71391;SDS011;59205;50.610;12.638;2022-12-05T03:11:13;80.50;;;30.23;;
71391;SDS011;59205;50.610;12.638;2022-12-05T03:13:58;79.43;;;29.90;;
71391;SDS011;59205;50.610;12.638;2022-12-05T03:16:34;80.22;;;28.80;;
71391;SDS011;59205;50.610;12.638;2022-12-05T03:19:09;74.05;;;27.98;;
71391;SDS011;59205;50.610;12.638;2022-12-05T03:21:42;81.72;;;28.35;;
71391;SDS011;59205;50.610;12.638;2022-12-05T03:24:18;104.87;;;30.37;;
71391;SDS011;59205;50.610;12.638;2022-12-05T03:39:57;132.68;;;33.72;;
71391;SDS011;59205;50.610;12.638;2022-12-05T03:42:37;123.68;;;34.47;;
71391;SDS011;59205;50.610;12.638;2022-12-05T03:45:14;111.38;;;33.60;;
71391;SDS011;59205;50.610;12.638;2022-12-05T03:47:48;110.32;;;34.13;;
71391;SDS011;59205;50.610;12.638;2022-12-05T03:50:24;94.00;;;33.00;;
71391;SDS011;59205;50.610;12.638;2022-12-05T03:52:57;117.85;;;34.33;;
71391;SDS011;59205;50.610;12.638;2022-12-05T03:55:28;112.88;;;34.53;;
71391;SDS011;59205;50.610;12.638;2022-12-05T03:57:58;100.60;;;32.80;;
71391;SDS011;59205;50.610;12.638;2022-12-05T04:00:31;107.30;;;35.03;;
71391;SDS011;59205;50.610;12.638;2022-12-05T04:03:06;97.18;;;33.08;;
71391;SDS011;59205;50.610;12.638;2022-12-05T04:08:25;103.72;;;33.20;;
71391;SDS011;59205;50.610;12.638;2022-12-05T04:11:00;105.30;;;33.03;;
71391;SDS011;59205;50.610;12.638;2022-12-05T04:13:31;93.75;;;31.60;;
71391;SDS011;59205;50.610;12.638;2022-12-05T04:16:12;96.10;;;32.38;;
71391;SDS011;59205;50.610;12.638;2022-12-05T04:19:21;101.43;;;32.30;;
71391;SDS011;59205;50.610;12.638;2022-12-05T04:21:52;98.55;;;32.45;;
71391;SDS011;59205;50.610;12.638;2022-12-05T04:24:28;97.47;;;31.75;;
71391;SDS011;59205;50.610;12.638;2022-12-05T04:30:00;104.53;;;33.22;;
71391;SDS011;59205;50.610;12.638;2022-12-05T04:32:28;101.13;;;31.65;;
71391;SDS011;59205;50.610;12.638;2022-12-05T04:35:02;116.43;;;32.97;;
71391;SDS011;59205;50.610;12.638;2022-12-05T04:37:34;108.25;;;32.67;;
71391;SDS011;59205;50.610;12.638;2022-12-05T04:40:09;116.10;;;33.78;;
71391;SDS011;59205;50.610;12.638;2022-12-05T04:42:40;107.45;;;33.60;;
71391;SDS011;59205;50.610;12.638;2022-12-05T04:45:08;178.60;;;36.15;;
71391;SDS011;59205;50.610;12.638;2022-12-05T04:47:41;117.78;;;34.30;;
71391;SDS011;59205;50.610;12.638;2022-12-05T04:50:13;117.60;;;30.42;;
71391;SDS011;59205;50.610;12.638;2022-12-05T04:52:41;94.70;;;31.50;;
71391;SDS011;59205;50.610;12.638;2022-12-05T04:55:14;275.85;;;34.95;;
71391;SDS011;59205;50.610;12.638;2022-12-05T04:57:48;96.85;;;31.55;;
71391;SDS011;59205;50.610;12.638;2022-12-05T05:01:01;122.57;;;33.58;;
71391;SDS011;59205;50.610;12.638;2022-12-05T05:08:35;174.52;;;32.40;;
71391;SDS011;59205;50.610;12.638;2022-12-05T05:13:37;110.60;;;32.65;;
71391;SDS011;59205;50.610;12.638;2022-12-05T05:16:03;135.68;;;33.90;;
71391;SDS011;59205;50.610;12.638;2022-12-05T05:18:29;133.48;;;34.20;;
71391;SDS011;59205;50.610;12.638;2022-12-05T05:20:55;144.80;;;32.75;;
71391;SDS011;59205;50.610;12.638;2022-12-05T05:23:20;259.48;;;34.42;;
71391;SDS011;59205;50.610;12.638;2022-12-05T05:25:50;238.43;;;37.55;;
71391;SDS011;59205;50.610;12.638;2022-12-05T05:28:17;215.50;;;40.47;;
71391;SDS011;59205;50.610;12.638;2022-12-05T05:30:42;164.02;;;40.08;;
71391;SDS011;59205;50.610;12.638;2022-12-05T05:33:08;290.02;;;40.70;;
71391;SDS011;59205;50.610;12.638;2022-12-05T05:35:36;551.28;;;48.35;;
71391;SDS011;59205;50.610;12.638;2022-12-05T05:38:03;244.20;;;39.03;;
71391;SDS011;59205;50.610;12.638;2022-12-05T05:40:28;171.07;;;40.60;;
71391;SDS011;59205;50.610;12.638;2022-12-05T05:42:54;409.42;;;44.75;;
71391;SDS011;59205;50.610;12.638;2022-12-05T05:45:20;249.27;;;41.60;;
71391;SDS011;59205;50.610;12.638;2022-12-05T05:47:48;220.65;;;40.20;;
71391;SDS011;59205;50.610;12.638;2022-12-05T05:50:14;266.00;;;40.45;;
71391;SDS011;59205;50.610;12.638;2022-12-05T05:52:40;223.10;;;49.80;;
71391;SDS011;59205;50.610;12.638;2022-12-05T05:55:06;243.20;;;47.50;;
71391;SDS011;59205;50.610;12.638;2022-12-05T05:57:32;201.05;;;40.95;;
71391;SDS011;59205;50.610;12.638;2022-12-05T05:59:58;152.88;;;41.03;;
71391;SDS011;59205;50.610;12.638;2022-12-05T06:02:24;142.40;;;39.90;;
71391;SDS011;59205;50.610;12.638;2022-12-05T06:04:49;144.68;;;39.30;;
71391;SDS011;59205;50.610;12.638;2022-12-05T06:07:15;163.80;;;39.50;;
71391;SDS011;59205;50.610;12.638;2022-12-05T06:09:40;147.00;;;39.22;;
71391;SDS011;59205;50.610;12.638;2022-12-05T06:12:06;141.25;;;38.50;;
71391;SDS011;59205;50.610;12.638;2022-12-05T06:14:32;131.20;;;38.33;;
71391;SDS011;59205;50.610;12.638;2022-12-05T06:16:58;244.85;;;42.25;;
71391;SDS011;59205;50.610;12.638;2022-12-05T06:19:25;149.88;;;40.58;;
71391;SDS011;59205;50.610;12.638;2022-12-05T06:21:50;142.52;;;40.60;;
71391;SDS011;59205;50.610;12.638;2022-12-05T06:24:16;123.40;;;38.25;;
71391;SDS011;59205;50.610;12.638;2022-12-05T06:26:42;129.50;;;38.92;;
71391;SDS011;59205;50.610;12.638;2022-12-05T06:29:08;128.95;;;38.45;;
71391;SDS011;59205;50.610;12.638;2022-12-05T06:31:34;123.90;;;38.53;;
71391;SDS011;59205;50.610;12.638;2022-12-05T06:34:00;119.80;;;37.30;;
71391;SDS011;59205;50.610;12.638;2022-12-05T06:36:27;130.65;;;43.63;;
71391;SDS011;59205;50.610;12.638;2022-12-05T06:38:54;118.28;;;38.60;;
71391;SDS011;59205;50.610;12.638;2022-12-05T06:41:21;121.65;;;38.70;;
71391;SDS011;59205;50.610;12.638;2022-12-05T06:43:53;116.47;;;37.95;;
71391;SDS011;59205;50.610;12.638;2022-12-05T06:46:19;135.50;;;38.20;;
71391;SDS011;59205;50.610;12.638;2022-12-05T06:48:47;109.30;;;35.63;;
71391;SDS011;59205;50.610;12.638;2022-12-05T06:51:14;106.65;;;34.75;;
71391;SDS011;59205;50.610;12.638;2022-12-05T06:53:41;93.35;;;31.75;;
71391;SDS011;59205;50.610;12.638;2022-12-05T06:56:09;80.00;;;30.23;;
71391;SDS011;59205;50.610;12.638;2022-12-05T06:58:37;74.88;;;26.83;;
71391;SDS011;59205;50.610;12.638;2022-12-05T07:01:03;69.57;;;27.13;;
71391;SDS011;59205;50.610;12.638;2022-12-05T07:03:48;61.38;;;24.30;;
71391;SDS011;59205;50.610;12.638;2022-12-05T07:06:14;55.05;;;22.60;;
71391;SDS011;59205;50.610;12.638;2022-12-05T07:08:40;57.55;;;23.13;;
71391;SDS011;59205;50.610;12.638;2022-12-05T07:11:06;60.75;;;24.80;;
71391;SDS011;59205;50.610;12.638;2022-12-05T07:13:31;45.80;;;20.13;;
71391;SDS011;59205;50.610;12.638;2022-12-05T07:15:57;48.47;;;19.65;;
71391;SDS011;59205;50.610;12.638;2022-12-05T07:18:23;46.38;;;19.30;;
71391;SDS011;59205;50.610;12.638;2022-12-05T07:20:56;43.05;;;19.05;;
71391;SDS011;59205;50.610;12.638;2022-12-05T07:23:26;38.45;;;16.95;;
71391;SDS011;59205;50.610;12.638;2022-12-05T07:25:52;34.67;;;15.88;;
71391;SDS011;59205;50.610;12.638;2022-12-05T07:28:18;32.05;;;15.48;;
71391;SDS011;59205;50.610;12.638;2022-12-05T07:30:44;33.90;;;14.52;;
71391;SDS011;59205;50.610;12.638;2022-12-05T07:33:09;29.05;;;13.60;;
71391;SDS011;59205;50.610;12.638;2022-12-05T07:35:35;28.00;;;13.30;;
71391;SDS011;59205;50.610;12.638;2022-12-05T07:38:01;29.23;;;13.57;;
71391;SDS011;59205;50.610;12.638;2022-12-05T07:40:27;31.65;;;14.10;;
71391;SDS011;59205;50.610;12.638;2022-12-05T07:42:52;24.75;;;12.45;;
71391;SDS011;59205;50.610;12.638;2022-12-05T07:45:19;33.78;;;15.43;;
71391;SDS011;59205;50.610;12.638;2022-12-05T07:47:44;30.80;;;14.70;;
71391;SDS011;59205;50.610;12.638;2022-12-05T07:50:10;25.65;;;11.32;;
71391;SDS011;59205;50.610;12.638;2022-12-05T07:52:37;22.33;;;10.32;;
71391;SDS011;59205;50.610;12.638;2022-12-05T07:55:02;18.63;;;10.00;;
71391;SDS011;59205;50.610;12.638;2022-12-05T07:57:29;21.90;;;9.63;;
71391;SDS011;59205;50.610;12.638;2022-12-05T07:59:56;16.83;;;8.65;;
71391;SDS011;59205;50.610;12.638;2022-12-05T08:02:21;12.32;;;7.07;;
71391;SDS011;59205;50.610;12.638;2022-12-05T08:04:47;12.02;;;6.82;;
71391;SDS011;59205;50.610;12.638;2022-12-05T08:07:12;11.18;;;6.53;;
71391;SDS011;59205;50.610;12.638;2022-12-05T08:09:38;11.35;;;6.43;;
71391;SDS011;59205;50.610;12.638;2022-12-05T08:12:03;10.15;;;6.07;;
71391;SDS011;59205;50.610;12.638;2022-12-05T08:14:29;10.52;;;6.40;;
71391;SDS011;59205;50.610;12.638;2022-12-05T08:16:54;10.50;;;6.43;;
71391;SDS011;59205;50.610;12.638;2022-12-05T08:19:21;152.50;;;75.93;;
71391;SDS011;59205;50.610;12.638;2022-12-05T08:21:46;12.40;;;6.43;;
71391;SDS011;59205;50.610;12.638;2022-12-05T08:24:12;9.80;;;6.00;;
71391;SDS011;59205;50.610;12.638;2022-12-05T08:26:37;8.57;;;5.40;;
71391;SDS011;59205;50.610;12.638;2022-12-05T08:31:31;10.00;;;6.03;;
71391;SDS011;59205;50.610;12.638;2022-12-05T08:33:58;11.77;;;6.30;;
71391;SDS011;59205;50.610;12.638;2022-12-05T08:36:25;11.35;;;6.70;;
71391;SDS011;59205;50.610;12.638;2022-12-05T08:38:59;9.88;;;5.90;;
71391;SDS011;59205;50.610;12.638;2022-12-05T08:41:28;12.85;;;7.40;;
71391;SDS011;59205;50.610;12.638;2022-12-05T08:43:54;11.13;;;6.85;;
71391;SDS011;59205;50.610;12.638;2022-12-05T08:46:21;13.80;;;7.55;;
71391;SDS011;59205;50.610;12.638;2022-12-05T08:48:46;10.00;;;6.20;;
71391;SDS011;59205;50.610;12.638;2022-12-05T08:51:12;13.85;;;7.50;;
71391;SDS011;59205;50.610;12.638;2022-12-05T08:53:38;16.95;;;8.75;;
71391;SDS011;59205;50.610;12.638;2022-12-05T08:56:06;14.07;;;8.00;;
71391;SDS011;59205;50.610;12.638;2022-12-05T08:58:33;13.57;;;7.18;;
71391;SDS011;59205;50.610;12.638;2022-12-05T09:01:03;12.73;;;7.57;;
71391;SDS011;59205;50.610;12.638;2022-12-05T09:03:33;13.05;;;7.13;;
71391;SDS011;59205;50.610;12.638;2022-12-05T09:06:18;11.75;;;6.80;;
71391;SDS011;59205;50.610;12.638;2022-12-05T09:08:46;10.95;;;6.32;;
71391;SDS011;59205;50.610;12.638;2022-12-05T09:11:14;10.43;;;6.07;;
71391;SDS011;59205;50.610;12.638;2022-12-05T09:13:41;8.98;;;6.10;;
71391;SDS011;59205;50.610;12.638;2022-12-05T09:16:12;8.68;;;5.55;;
71391;SDS011;59205;50.610;12.638;2022-12-05T09:18:40;9.93;;;5.85;;
71391;SDS011;59205;50.610;12.638;2022-12-05T09:21:11;10.07;;;6.38;;
71391;SDS011;59205;50.610;12.638;2022-12-05T09:23:37;12.00;;;5.80;;
71391;SDS011;59205;50.610;12.638;2022-12-05T09:26:04;11.10;;;6.45;;
71391;SDS011;59205;50.610;12.638;2022-12-05T09:28:32;9.13;;;5.70;;
71391;SDS011;59205;50.610;12.638;2022-12-05T09:30:59;10.15;;;6.07;;
71391;SDS011;59205;50.610;12.638;2022-12-05T09:33:27;10.48;;;6.15;;
71391;SDS011;59205;50.610;12.638;2022-12-05T09:35:54;10.98;;;6.32;;
71391;SDS011;59205;50.610;12.638;2022-12-05T09:38:19;11.25;;;6.50;;
71391;SDS011;59205;50.610;12.638;2022-12-05T09:40:45;10.98;;;6.20;;
71391;SDS011;59205;50.610;12.638;2022-12-05T09:43:18;11.90;;;6.55;;
71391;SDS011;59205;50.610;12.638;2022-12-05T09:46:08;10.23;;;6.05;;
71391;SDS011;59205;50.610;12.638;2022-12-05T09:48:53;10.27;;;6.00;;
71391;SDS011;59205;50.610;12.638;2022-12-05T09:51:20;10.02;;;6.07;;
71391;SDS011;59205;50.610;12.638;2022-12-05T09:53:46;10.68;;;6.72;;
71391;SDS011;59205;50.610;12.638;2022-12-05T09:56:20;9.07;;;5.90;;
71391;SDS011;59205;50.610;12.638;2022-12-05T09:58:52;13.30;;;6.20;;
71391;SDS011;59205;50.610;12.638;2022-12-05T10:06:31;9.00;;;5.45;;
71391;SDS011;59205;50.610;12.638;2022-12-05T10:17:35;9.95;;;6.20;;
71391;SDS011;59205;50.610;12.638;2022-12-05T10:20:12;9.45;;;5.43;;
71391;SDS011;59205;50.610;12.638;2022-12-05T10:22:42;9.05;;;5.45;;
71391;SDS011;59205;50.610;12.638;2022-12-05T10:25:09;9.35;;;4.97;;
71391;SDS011;59205;50.610;12.638;2022-12-05T10:27:41;8.50;;;5.30;;
71391;SDS011;59205;50.610;12.638;2022-12-05T10:30:15;8.88;;;5.13;;
71391;SDS011;59205;50.610;12.638;2022-12-05T10:38:22;8.15;;;5.18;;
71391;SDS011;59205;50.610;12.638;2022-12-05T10:40:51;7.78;;;4.88;;
71391;SDS011;59205;50.610;12.638;2022-12-05T10:43:23;7.85;;;5.03;;
71391;SDS011;59205;50.610;12.638;2022-12-05T10:45:50;7.85;;;4.70;;
71391;SDS011;59205;50.610;12.638;2022-12-05T10:48:17;7.97;;;4.95;;
71391;SDS011;59205;50.610;12.638;2022-12-05T10:50:45;9.65;;;5.28;;
71391;SDS011;59205;50.610;12.638;2022-12-05T10:53:37;7.38;;;4.78;;
71391;SDS011;59205;50.610;12.638;2022-12-05T10:56:02;8.38;;;5.30;;
71391;SDS011;59205;50.610;12.638;2022-12-05T10:58:28;9.27;;;5.07;;
71391;SDS011;59205;50.610;12.638;2022-12-05T11:00:54;9.18;;;5.28;;
71391;SDS011;59205;50.610;12.638;2022-12-05T11:03:26;7.80;;;5.07;;
71391;SDS011;59205;50.610;12.638;2022-12-05T11:05:53;6.95;;;4.50;;
71391;SDS011;59205;50.610;12.638;2022-12-05T11:08:21;8.68;;;4.97;;
71391;SDS011;59205;50.610;12.638;2022-12-05T11:13:54;6.57;;;4.57;;
71391;SDS011;59205;50.610;12.638;2022-12-05T11:18:56;18.63;;;11.25;;
71391;SDS011;59205;50.610;12.638;2022-12-05T11:21:50;8.95;;;5.10;;
71391;SDS011;59205;50.610;12.638;2022-12-05T11:24:33;8.57;;;5.05;;
71391;SDS011;59205;50.610;12.638;2022-12-05T11:27:25;7.97;;;4.82;;
71391;SDS011;59205;50.610;12.638;2022-12-05T11:29:58;9.23;;;5.00;;
71391;SDS011;59205;50.610;12.638;2022-12-05T11:32:25;7.30;;;4.65;;
71391;SDS011;59205;50.610;12.638;2022-12-05T11:37:45;7.60;;;4.05;;
71391;SDS011;59205;50.610;12.638;2022-12-05T11:40:13;5.97;;;4.22;;
71391;SDS011;59205;50.610;12.638;2022-12-05T11:48:14;9.20;;;4.20;;
71391;SDS011;59205;50.610;12.638;2022-12-05T11:58:58;6.85;;;4.07;;
71391;SDS011;59205;50.610;12.638;2022-12-05T12:04:49;5.30;;;3.78;;
71391;SDS011;59205;50.610;12.638;2022-12-05T12:10:23;6.85;;;4.45;;
71391;SDS011;59205;50.610;12.638;2022-12-05T12:13:10;9.82;;;4.72;;
71391;SDS011;59205;50.610;12.638;2022-12-05T12:18:39;9.88;;;6.03;;
71391;SDS011;59205;50.610;12.638;2022-12-05T12:24:19;10.27;;;6.03;;
71391;SDS011;59205;50.610;12.638;2022-12-05T12:51:28;11.90;;;5.57;;
71391;SDS011;59205;50.610;12.638;2022-12-05T12:53:58;8.68;;;5.15;;
71391;SDS011;59205;50.610;12.638;2022-12-05T12:59:40;8.02;;;4.95;;
71391;SDS011;59205;50.610;12.638;2022-12-05T13:02:20;83.20;;;37.67;;
71391;SDS011;59205;50.610;12.638;2022-12-05T13:04:59;12.25;;;7.05;;
71391;SDS011;59205;50.610;12.638;2022-12-05T13:07:34;7.75;;;4.78;;
71391;SDS011;59205;50.610;12.638;2022-12-05T13:12:42;7.13;;;4.55;;
71391;SDS011;59205;50.610;12.638;2022-12-05T13:15:15;8.18;;;4.85;;
71391;SDS011;59205;50.610;12.638;2022-12-05T13:17:46;6.50;;;4.38;;
71391;SDS011;59205;50.610;12.638;2022-12-05T13:20:14;7.25;;;4.40;;
71391;SDS011;59205;50.610;12.638;2022-12-05T13:22:41;7.45;;;4.57;;
71391;SDS011;59205;50.610;12.638;2022-12-05T13:25:12;7.47;;;4.78;;
71391;SDS011;59205;50.610;12.638;2022-12-05T13:27:39;8.73;;;5.25;;
71391;SDS011;59205;50.610;12.638;2022-12-05T13:30:24;8.27;;;4.85;;
71391;SDS011;59205;50.610;12.638;2022-12-05T13:32:58;7.40;;;4.85;;
71391;SDS011;59205;50.610;12.638;2022-12-05T13:35:30;7.78;;;4.80;;
71391;SDS011;59205;50.610;12.638;2022-12-05T13:41:04;8.82;;;5.38;;
71391;SDS011;59205;50.610;12.638;2022-12-05T13:43:49;8.95;;;6.13;;
71391;SDS011;59205;50.610;12.638;2022-12-05T13:49:04;8.65;;;5.80;;
71391;SDS011;59205;50.610;12.638;2022-12-05T13:51:39;13.43;;;8.65;;
71391;SDS011;59205;50.610;12.638;2022-12-05T13:59:10;8.70;;;5.78;;
71391;SDS011;59205;50.610;12.638;2022-12-05T14:04:20;9.95;;;6.18;;
71391;SDS011;59205;50.610;12.638;2022-12-05T14:07:07;13.13;;;6.85;;
71391;SDS011;59205;50.610;12.638;2022-12-05T14:09:47;10.43;;;6.43;;
71391;SDS011;59205;50.610;12.638;2022-12-05T14:15:02;11.45;;;6.55;;
71391;SDS011;59205;50.610;12.638;2022-12-05T14:17:28;10.95;;;6.60;;
71391;SDS011;59205;50.610;12.638;2022-12-05T14:22:30;13.25;;;6.60;;
71391;SDS011;59205;50.610;12.638;2022-12-05T14:25:10;11.48;;;6.70;;
71391;SDS011;59205;50.610;12.638;2022-12-05T14:30:47;11.32;;;6.93;;
71391;SDS011;59205;50.610;12.638;2022-12-05T14:33:34;13.68;;;7.43;;
71391;SDS011;59205;50.610;12.638;2022-12-05T14:36:06;12.75;;;6.57;;
71391;SDS011;59205;50.610;12.638;2022-12-05T14:38:38;219.70;;;102.93;;
71391;SDS011;59205;50.610;12.638;2022-12-05T14:41:11;15.85;;;8.55;;
71391;SDS011;59205;50.610;12.638;2022-12-05T14:43:37;14.23;;;7.72;;
71391;SDS011;59205;50.610;12.638;2022-12-05T14:46:07;11.75;;;6.65;;
71391;SDS011;59205;50.610;12.638;2022-12-05T14:48:41;11.45;;;6.65;;
71391;SDS011;59205;50.610;12.638;2022-12-05T14:54:16;11.88;;;7.45;;
71391;SDS011;59205;50.610;12.638;2022-12-05T14:56:49;12.65;;;7.00;;
71391;SDS011;59205;50.610;12.638;2022-12-05T14:59:21;15.20;;;7.97;;
71391;SDS011;59205;50.610;12.638;2022-12-05T15:01:53;11.68;;;6.97;;
71391;SDS011;59205;50.610;12.638;2022-12-05T15:07:35;14.05;;;7.53;;
71391;SDS011;59205;50.610;12.638;2022-12-05T15:10:04;13.98;;;7.45;;
71391;SDS011;59205;50.610;12.638;2022-12-05T15:21:03;13.73;;;6.90;;
71391;SDS011;59205;50.610;12.638;2022-12-05T15:23:54;17.27;;;7.60;;
71391;SDS011;59205;50.610;12.638;2022-12-05T15:31:50;9.85;;;5.50;;
71391;SDS011;59205;50.610;12.638;2022-12-05T15:42:29;10.35;;;6.05;;
71391;SDS011;59205;50.610;12.638;2022-12-05T15:50:12;12.05;;;6.55;;
71391;SDS011;59205;50.610;12.638;2022-12-05T15:55:18;107.90;;;58.38;;
71391;SDS011;59205;50.610;12.638;2022-12-05T15:57:51;14.07;;;7.88;;
71391;SDS011;59205;50.610;12.638;2022-12-05T16:00:20;9.65;;;5.47;;
71391;SDS011;59205;50.610;12.638;2022-12-05T16:08:03;7.88;;;4.22;;
71391;SDS011;59205;50.610;12.638;2022-12-05T16:10:30;5.38;;;3.67;;
71391;SDS011;59205;50.610;12.638;2022-12-05T16:13:01;19.48;;;10.70;;
71391;SDS011;59205;50.610;12.638;2022-12-05T16:15:29;5.43;;;3.72;;
71391;SDS011;59205;50.610;12.638;2022-12-05T16:17:55;7.15;;;4.15;;
71391;SDS011;59205;50.610;12.638;2022-12-05T16:23:00;5.28;;;3.15;;
71391;SDS011;59205;50.610;12.638;2022-12-05T16:25:32;7.75;;;4.25;;
71391;SDS011;59205;50.610;12.638;2022-12-05T16:30:31;3.65;;;2.47;;
71391;SDS011;59205;50.610;12.638;2022-12-05T16:32:57;3.08;;;2.28;;
71391;SDS011;59205;50.610;12.638;2022-12-05T16:35:44;2.97;;;2.13;;
71391;SDS011;59205;50.610;12.638;2022-12-05T16:40:39;4.38;;;3.00;;
71391;SDS011;59205;50.610;12.638;2022-12-05T16:48:37;3.40;;;2.35;;
71391;SDS011;59205;50.610;12.638;2022-12-05T16:53:39;3.17;;;2.30;;
71391;SDS011;59205;50.610;12.638;2022-12-05T16:56:06;3.10;;;2.22;;
71391;SDS011;59205;50.610;12.638;2022-12-05T16:58:38;2.42;;;1.98;;
71391;SDS011;59205;50.610;12.638;2022-12-05T17:01:04;2.50;;;1.90;;
71391;SDS011;59205;50.610;12.638;2022-12-05T17:03:30;2.25;;;1.73;;
71391;SDS011;59205;50.610;12.638;2022-12-05T17:05:56;3.05;;;2.08;;
71391;SDS011;59205;50.610;12.638;2022-12-05T17:08:23;4.00;;;1.90;;
71391;SDS011;59205;50.610;12.638;2022-12-05T17:10:49;9.25;;;4.80;;
71391;SDS011;59205;50.610;12.638;2022-12-05T17:13:16;2.97;;;1.83;;
71391;SDS011;59205;50.610;12.638;2022-12-05T17:15:43;112.13;;;53.95;;
71391;SDS011;59205;50.610;12.638;2022-12-05T17:18:13;20.75;;;11.65;;
71391;SDS011;59205;50.610;12.638;2022-12-05T17:20:45;3.53;;;2.40;;
71391;SDS011;59205;50.610;12.638;2022-12-05T17:23:14;3.88;;;2.40;;
71391;SDS011;59205;50.610;12.638;2022-12-05T17:25:42;3.88;;;2.50;;
71391;SDS011;59205;50.610;12.638;2022-12-05T17:28:10;4.00;;;2.33;;
71391;SDS011;59205;50.610;12.638;2022-12-05T17:30:35;4.50;;;2.10;;
71391;SDS011;59205;50.610;12.638;2022-12-05T17:33:02;3.97;;;2.40;;
71391;SDS011;59205;50.610;12.638;2022-12-05T17:35:29;3.25;;;2.17;;
71391;SDS011;59205;50.610;12.638;2022-12-05T17:37:54;2.88;;;2.05;;
71391;SDS011;59205;50.610;12.638;2022-12-05T17:40:20;4.45;;;2.28;;
71391;SDS011;59205;50.610;12.638;2022-12-05T17:42:46;4.68;;;3.00;;
71391;SDS011;59205;50.610;12.638;2022-12-05T17:45:13;7.40;;;3.83;;
71391;SDS011;59205;50.610;12.638;2022-12-05T17:47:40;3.60;;;2.20;;
71391;SDS011;59205;50.610;12.638;2022-12-05T17:50:09;4.22;;;2.10;;
71391;SDS011;59205;50.610;12.638;2022-12-05T17:52:37;3.90;;;2.15;;
71391;SDS011;59205;50.610;12.638;2022-12-05T17:55:03;2.80;;;2.00;;
71391;SDS011;59205;50.610;12.638;2022-12-05T17:57:28;2.80;;;2.20;;
71391;SDS011;59205;50.610;12.638;2022-12-05T17:59:54;4.57;;;2.20;;